createdAt,value
2022-09-20T00:00:13.598Z,93020.13
2022-09-20T00:02:56.418Z,93015.94
2022-09-20T00:05:41.888Z,93023.59
2022-09-20T00:08:24.672Z,93020.13
2022-09-20T00:11:10.151Z,93019.16
2022-09-20T00:13:56.267Z,93018.19
2022-09-20T00:16:41.931Z,93020.66
2022-09-20T00:19:25.573Z,93018.88
2022-09-20T00:22:09.740Z,93008.78
2022-09-20T00:24:52.486Z,93017.41
2022-09-20T00:27:35.299Z,93010.50
2022-09-20T00:30:18.575Z,93008.09
2022-09-20T00:33:01.850Z,93009.03
2022-09-20T00:35:44.046Z,93013.38
2022-09-20T00:38:28.198Z,93015.00
2022-09-20T00:41:11.769Z,93007.16
2022-09-20T00:43:55.619Z,93008.78
2022-09-20T00:46:41.076Z,93011.19
2022-09-20T00:49:28.926Z,93008.53
2022-09-20T00:52:12.095Z,93003.25
2022-09-20T00:54:57.040Z,93008.38
2022-09-20T00:57:40.370Z,93000.94
2022-09-20T01:00:24.096Z,93007.59
2022-09-20T01:03:10.259Z,93005.81
2022-09-20T01:05:54.595Z,93006.63
2022-09-20T01:08:38.034Z,93000.00
2022-09-20T01:11:22.244Z,93003.66
2022-09-20T01:14:05.488Z,93007.00
2022-09-20T01:16:48.335Z,93012.13
2022-09-20T01:19:39.025Z,93016.31
2022-09-20T01:22:26.551Z,93004.34
2022-09-20T01:25:16.110Z,93006.06
2022-09-20T01:28:00.479Z,93005.28
2022-09-20T01:30:48.295Z,93001.88
2022-09-20T01:33:36.497Z,92999.63
2022-09-20T01:36:25.795Z,92995.69
2022-09-20T01:39:13.304Z,92994.34
2022-09-20T01:41:59.698Z,92999.03
2022-09-20T01:44:53.200Z,92992.97
2022-09-20T01:47:42.382Z,92990.16
2022-09-20T01:50:34.884Z,92991.66
2022-09-20T01:53:53.058Z,92985.72
2022-09-20T01:56:55.730Z,92991.38
2022-09-20T01:59:55.412Z,92982.91
2022-09-20T02:03:05.373Z,92983.69
2022-09-20T02:06:15.150Z,92986.25
2022-09-20T02:09:20.230Z,92988.81
2022-09-20T02:12:33.511Z,92991.25
2022-09-20T02:15:36.451Z,92988.69
2022-09-20T02:18:39.089Z,92986.66
2022-09-20T02:21:32.662Z,92982.34
2022-09-20T02:24:24.374Z,92984.91
2022-09-20T02:27:19.699Z,92983.97
2022-09-20T02:30:20.712Z,92980.59
2022-09-20T02:33:31.026Z,92976.28
2022-09-20T02:36:28.254Z,92982.22
2022-09-20T02:39:16.544Z,92985.59
2022-09-20T02:42:10.141Z,92980.59
2022-09-20T02:45:04.130Z,92974.94
2022-09-20T02:47:48.501Z,92976.84
2022-09-20T02:50:39.706Z,92985.19
2022-09-20T02:53:36.633Z,92985.88
2022-09-20T02:56:27.906Z,92985.72
2022-09-20T02:59:20.064Z,92990.84
2022-09-20T03:02:12.096Z,92984.38
2022-09-20T03:05:09.645Z,92984.53
2022-09-20T03:08:09.695Z,92986.81
2022-09-20T03:11:03.011Z,92990.31
2022-09-20T03:14:03.908Z,92992.88
2022-09-20T03:17:05.660Z,92997.19
2022-09-20T03:20:01.519Z,92992.06
2022-09-20T03:22:55.729Z,92999.63
2022-09-20T03:25:51.419Z,92991.66
2022-09-20T03:28:49.081Z,92998.53
2022-09-20T03:31:58.911Z,92998.38
2022-09-20T03:34:51.059Z,92991.53
2022-09-20T03:37:55.456Z,92995.03
2022-09-20T03:41:09.257Z,92997.72
2022-09-20T03:44:11.611Z,93000.16
2022-09-20T03:47:04.925Z,92999.34
2022-09-20T03:50:24.342Z,93002.84
2022-09-20T03:53:55.809Z,93007.84
2022-09-20T03:57:10.695Z,93009.56
2022-09-20T04:00:06.577Z,93005.81
2022-09-20T04:03:29.769Z,93009.31
2022-09-20T04:06:35.723Z,93002.56
2022-09-20T04:09:34.182Z,93013.22
2022-09-20T04:12:27.999Z,93009.97
2022-09-20T04:15:24.810Z,93006.47
2022-09-20T04:18:19.439Z,93010.91
2022-09-20T04:21:06.835Z,93015.38
2022-09-20T04:23:57.446Z,93006.75
2022-09-20T04:26:45.853Z,93019.69
2022-09-20T04:29:37.628Z,93015.09
2022-09-20T04:32:26.479Z,93011.50
2022-09-20T04:35:52.030Z,93013.06
2022-09-20T04:38:35.758Z,93019.56
2022-09-20T04:41:37.867Z,93021.88
2022-09-20T04:44:53.551Z,93021.88
2022-09-20T04:47:45.248Z,93023.47
2022-09-20T04:50:55.608Z,93024.41
2022-09-20T04:54:09.545Z,93022.94
2022-09-20T04:57:25.612Z,93029.69
2022-09-20T05:00:12.199Z,93021.88
2022-09-20T05:03:39.204Z,93024.41
2022-09-20T05:07:03.219Z,93021.19
2022-09-20T05:10:04.029Z,93023.63
2022-09-20T05:13:11.864Z,93021.72
2022-09-20T05:16:02.085Z,93030.91
2022-09-20T05:19:09.037Z,93037.75
2022-09-20T05:22:20.087Z,93037.91
2022-09-20T05:25:27.215Z,93048.00
2022-09-20T05:28:20.244Z,93051.63
2022-09-20T05:31:11.072Z,93049.69
2022-09-20T05:34:03.061Z,93047.88
2022-09-20T05:36:56.287Z,93055.09
2022-09-20T05:39:44.142Z,93058.69
2022-09-20T05:42:36.538Z,93056.50
2022-09-20T05:45:35.719Z,93064.94
2022-09-20T05:48:28.564Z,93057.53
2022-09-20T05:51:21.942Z,93063.19
2022-09-20T05:54:25.167Z,93067.13
2022-09-20T05:57:20.356Z,93070.63
2022-09-20T06:00:08.778Z,93068.75
2022-09-20T06:03:06.689Z,93076.41
2022-09-20T06:05:59.961Z,93070.97
2022-09-20T06:09:08.580Z,93067.06
2022-09-20T06:12:17.975Z,93071.81
2022-09-20T06:15:13.134Z,93070.63
2022-09-20T06:18:04.861Z,93070.09
2022-09-20T06:20:58.797Z,93074.88
2022-09-20T06:23:41.890Z,93071.41
2022-09-20T06:26:29.391Z,93068.91
2022-09-20T06:29:15.248Z,93074.88
2022-09-20T06:31:58.172Z,93078.41
2022-09-20T06:34:40.934Z,93072.66
2022-09-20T06:37:58.383Z,93073.03
2022-09-20T06:41:14.887Z,93074.94
2022-09-20T06:43:59.518Z,93076.06
2022-09-20T06:46:42.309Z,93069.16
2022-09-20T06:49:28.300Z,93078.47
2022-09-20T06:52:15.639Z,93079.84
2022-09-20T06:54:59.906Z,93081.06
2022-09-20T06:57:42.634Z,93079.59
2022-09-20T07:00:25.484Z,93085.69
2022-09-20T07:03:09.079Z,93077.44
2022-09-20T07:05:51.963Z,93086.34
2022-09-20T07:08:34.743Z,93090.25
2022-09-20T07:11:19.010Z,93089.06
2022-09-20T07:14:02.123Z,93079.06
2022-09-20T07:16:44.959Z,93084.19
2022-09-20T07:19:27.746Z,93085.13
2022-09-20T07:22:11.073Z,93090.16
2022-09-20T07:24:53.844Z,93095.41
2022-09-20T07:27:37.970Z,93096.59
2022-09-20T07:30:21.617Z,93101.06
2022-09-20T07:33:04.379Z,93095.53
2022-09-20T07:35:47.323Z,93109.69
2022-09-20T07:38:30.149Z,93107.97
2022-09-20T07:41:12.891Z,93113.09
2022-09-20T07:44:17.127Z,93105.91
2022-09-20T07:47:01.167Z,93105.50
2022-09-20T07:49:44.002Z,93111.03
2022-09-20T07:52:26.769Z,93105.91
2022-09-20T07:55:10.148Z,93113.19
2022-09-20T07:57:54.559Z,93118.28
2022-09-20T08:00:38.842Z,93118.41
2022-09-20T08:03:21.707Z,93118.41
2022-09-20T08:06:06.857Z,93127.06
2022-09-20T08:08:51.577Z,93127.34
2022-09-20T08:11:36.184Z,93126.81
2022-09-20T08:14:19.597Z,93126.41
2022-09-20T08:17:03.839Z,93125.47
2022-09-20T08:19:46.403Z,93130.47
2022-09-20T08:22:29.063Z,93131.03
2022-09-20T08:25:11.660Z,93136.00
2022-09-20T08:27:54.699Z,93128.06
2022-09-20T08:30:38.378Z,93132.09
2022-09-20T08:33:22.329Z,93130.75
2022-09-20T08:36:05.017Z,93133.72
2022-09-20T08:41:55.673Z,93129.09
2022-09-20T08:44:46.916Z,93128.06
2022-09-20T08:47:31.288Z,93127.38
2022-09-20T08:50:18.111Z,93131.69
2022-09-20T08:53:04.908Z,93132.34
2022-09-20T08:55:47.935Z,93123.44
2022-09-20T08:58:30.567Z,93125.25
2022-09-20T09:01:16.469Z,93121.94
2022-09-20T09:04:00.070Z,93128.16
2022-09-20T09:06:44.738Z,93128.03
2022-09-20T09:09:29.123Z,93131.72
2022-09-20T09:12:20.367Z,93132.66
2022-09-20T09:15:06.122Z,93131.16
2022-09-20T09:17:48.708Z,93131.41
2022-09-20T09:20:41.187Z,93124.97
2022-09-20T09:23:27.982Z,93118.56
2022-09-20T09:26:17.775Z,93120.97
2022-09-20T09:29:10.584Z,93121.09
2022-09-20T09:31:54.531Z,93118.44
2022-09-20T09:34:38.761Z,93114.25
2022-09-20T09:37:28.662Z,93113.75
2022-09-20T09:40:17.355Z,93117.59
2022-09-20T09:43:01.209Z,93123.16
2022-09-20T09:45:43.812Z,93124.91
2022-09-20T09:48:27.421Z,93133.44
2022-09-20T09:51:11.397Z,93117.63
2022-09-20T09:53:55.163Z,93121.66
2022-09-20T09:56:47.408Z,93124.03
2022-09-20T09:59:40.236Z,93118.88
2022-09-20T10:02:44.796Z,93121.41
2022-09-20T10:05:30.794Z,93126.63
2022-09-20T10:08:18.761Z,93123.81
2022-09-20T10:11:07.714Z,93119.25
2022-09-20T10:14:03.108Z,93121.53
2022-09-20T10:16:55.441Z,93114.03
2022-09-20T10:19:47.307Z,93123.34
2022-09-20T10:22:35.155Z,93119.03
2022-09-20T10:25:23.954Z,93115.38
2022-09-20T10:28:13.652Z,93116.16
2022-09-20T10:31:04.564Z,93123.81
2022-09-20T10:33:54.113Z,93121.72
2022-09-20T10:36:40.846Z,93124.72
2022-09-20T10:39:26.349Z,93118.22
2022-09-20T10:42:33.233Z,93120.56
2022-09-20T10:45:43.911Z,93124.38
2022-09-20T10:48:25.794Z,93124.09
2022-09-20T10:51:14.888Z,93127.47
2022-09-20T10:54:06.016Z,93118.53
2022-09-20T10:56:52.474Z,93123.19
2022-09-20T10:59:43.306Z,93124.09
2022-09-20T11:02:36.935Z,93121.78
2022-09-20T11:05:27.171Z,93117.16
2022-09-20T11:08:13.005Z,93115.56
2022-09-20T11:10:57.267Z,93121.13
2022-09-20T11:13:42.519Z,93114.38
2022-09-20T11:16:29.264Z,93117.63
2022-09-20T11:19:18.385Z,93123.91
2022-09-20T11:22:07.561Z,93116.50
2022-09-20T11:24:52.598Z,93129.88
2022-09-20T11:27:39.130Z,93126.25
2022-09-20T11:30:22.885Z,93128.81
2022-09-20T11:33:11.916Z,93117.88
2022-09-20T11:35:57.508Z,93115.53
2022-09-20T11:38:52.284Z,93123.00
2022-09-20T11:41:35.948Z,93128.78
2022-09-20T11:44:20.539Z,93135.84
2022-09-20T11:47:05.572Z,93138.78
2022-09-20T11:49:56.156Z,93140.72
2022-09-20T11:52:49.298Z,93133.25
2022-09-20T11:55:42.559Z,93128.91
2022-09-20T11:58:25.774Z,93127.78
2022-09-20T12:01:13.466Z,93136.31
2022-09-20T12:04:20.505Z,93126.94
2022-09-20T12:07:07.469Z,93119.00
2022-09-20T12:09:56.489Z,93114.81
2022-09-20T12:12:42.453Z,93109.94
2022-09-20T12:15:26.295Z,93119.75
2022-09-20T12:18:13.692Z,93106.44
2022-09-20T12:21:07.299Z,93110.38
2022-09-20T12:24:10.596Z,93109.84
2022-09-20T12:26:56.823Z,93106.28
2022-09-20T12:29:54.325Z,93107.88
2022-09-20T12:32:56.258Z,93109.56
2022-09-20T12:35:57.522Z,93112.00
2022-09-20T12:38:48.194Z,93109.31
2022-09-20T12:41:46.129Z,93102.16
2022-09-20T12:44:31.386Z,93101.78
2022-09-20T12:47:18.232Z,93121.69
2022-09-20T12:50:19.410Z,93116.44
2022-09-20T12:53:04.353Z,93121.50
2022-09-20T12:55:55.034Z,93125.88
2022-09-20T12:58:45.091Z,93122.94
2022-09-20T13:01:30.304Z,93120.63
2022-09-20T13:04:32.319Z,93115.59
2022-09-20T13:07:44.938Z,93120.50
2022-09-20T13:10:30.178Z,93122.63
2022-09-20T13:13:19.970Z,93120.06
2022-09-20T13:16:06.021Z,93121.97
2022-09-20T13:18:50.128Z,93122.69
2022-09-20T13:21:33.435Z,93123.69
2022-09-20T13:24:19.052Z,93106.41
2022-09-20T13:27:03.402Z,93117.78
2022-09-20T13:29:47.627Z,93110.81
2022-09-20T13:32:31.235Z,93113.56
2022-09-20T13:35:16.837Z,93114.28
2022-09-20T13:38:02.045Z,93114.19
2022-09-20T13:40:47.785Z,93118.38
2022-09-20T13:43:32.898Z,93122.84
2022-09-20T13:46:17.949Z,93123.16
2022-09-20T13:49:13.741Z,93112.69
2022-09-20T13:51:56.681Z,93119.81
2022-09-20T13:54:39.263Z,93122.44
2022-09-20T13:57:24.079Z,93117.81
2022-09-20T14:00:07.443Z,93129.56
2022-09-20T14:02:56.238Z,93121.34
2022-09-20T14:05:39.522Z,93121.00
2022-09-20T14:08:24.206Z,93116.28
2022-09-20T14:11:08.273Z,93116.59
2022-09-20T14:13:52.246Z,93122.69
2022-09-20T14:16:36.144Z,93121.94
2022-09-20T14:19:21.958Z,93123.09
2022-09-20T14:22:05.562Z,93125.69
2022-09-20T14:24:59.506Z,93117.41
2022-09-20T14:27:42.110Z,93120.75
2022-09-20T14:30:30.041Z,93124.69
2022-09-20T14:33:16.045Z,93133.69
2022-09-20T14:36:00.815Z,93122.66
2022-09-20T14:38:45.383Z,93115.44
2022-09-20T14:41:29.831Z,93128.72
2022-09-20T14:44:21.943Z,93124.78
2022-09-20T14:47:14.800Z,93134.59
2022-09-20T14:49:58.091Z,93137.88
2022-09-20T14:52:44.100Z,93139.75
2022-09-20T14:55:28.550Z,93139.75
2022-09-20T14:58:12.265Z,93140.34
2022-09-20T15:00:57.874Z,93148.38
2022-09-20T15:03:44.660Z,93139.50
2022-09-20T15:06:27.274Z,93147.91
2022-09-20T15:09:13.071Z,93145.13
2022-09-20T15:12:02.522Z,93146.16
2022-09-20T15:14:45.245Z,93144.47
2022-09-20T15:17:27.863Z,93137.97
2022-09-20T15:20:15.117Z,93147.75
2022-09-20T15:22:58.039Z,93141.78
2022-09-20T15:25:42.022Z,93143.41
2022-09-20T15:28:26.606Z,93144.50
2022-09-20T15:31:11.165Z,93144.19
2022-09-20T15:33:53.851Z,93151.00
2022-09-20T15:36:36.611Z,93151.44
2022-09-20T15:39:19.268Z,93144.94
2022-09-20T15:42:04.018Z,93152.88
2022-09-20T15:44:46.601Z,93156.66
2022-09-20T15:47:30.182Z,93158.22
2022-09-20T15:50:12.847Z,93165.91
2022-09-20T15:52:59.766Z,93171.97
2022-09-20T15:55:42.620Z,93174.03
2022-09-20T15:58:26.885Z,93174.31
2022-09-20T16:01:09.692Z,93175.25
2022-09-20T16:03:53.493Z,93172.03
2022-09-20T16:06:37.050Z,93176.66
2022-09-20T16:09:19.766Z,93175.03
2022-09-20T16:12:04.512Z,93173.03
2022-09-20T16:14:48.607Z,93177.50
2022-09-20T16:17:48.908Z,93174.94
2022-09-20T16:20:31.537Z,93170.69
2022-09-20T16:23:14.681Z,93175.50
2022-09-20T16:25:57.306Z,93183.56
2022-09-20T16:28:42.929Z,93186.28
2022-09-20T16:31:34.606Z,93181.88
2022-09-20T16:34:18.988Z,93192.06
2022-09-20T16:37:03.061Z,93190.47
2022-09-20T16:39:45.640Z,93193.47
2022-09-20T16:42:29.465Z,93201.03
2022-09-20T16:45:13.410Z,93199.31
2022-09-20T16:47:59.086Z,93210.94
2022-09-20T16:50:41.722Z,93206.09
2022-09-20T16:53:24.454Z,93212.31
2022-09-20T16:56:07.726Z,93216.09
2022-09-20T16:58:51.283Z,93219.34
2022-09-20T17:01:34.380Z,93224.88
2022-09-20T17:04:19.000Z,93224.59
2022-09-20T17:07:02.298Z,93227.84
2022-09-20T17:09:44.881Z,93230.16
2022-09-20T17:12:31.725Z,93235.97
2022-09-20T17:15:14.612Z,93239.44
2022-09-20T17:17:57.774Z,93233.34
2022-09-20T17:20:41.722Z,93245.91
2022-09-20T17:23:24.789Z,93254.69
2022-09-20T17:26:09.076Z,93264.13
2022-09-20T17:28:53.352Z,93264.00
2022-09-20T17:31:37.421Z,93269.00
2022-09-20T17:34:21.792Z,93273.72
2022-09-20T17:37:06.030Z,93283.69
2022-09-20T17:39:48.773Z,93284.47
2022-09-20T17:42:34.052Z,93279.22
2022-09-20T17:45:18.312Z,93281.59
2022-09-20T17:48:01.617Z,93287.22
2022-09-20T17:50:44.229Z,93291.81
2022-09-20T17:53:28.162Z,93296.25
2022-09-20T17:56:11.683Z,93290.88
2022-09-20T17:58:54.271Z,93291.69
2022-09-20T18:01:38.025Z,93295.84
2022-09-20T18:04:24.189Z,93303.28
2022-09-20T18:07:07.504Z,93303.97
2022-09-20T18:09:51.404Z,93300.47
2022-09-20T18:12:34.041Z,93313.19
2022-09-20T18:15:17.445Z,93307.22
2022-09-20T18:18:00.025Z,93313.28
2022-09-20T18:20:42.618Z,93315.41
2022-09-20T18:23:25.175Z,93316.91
2022-09-20T18:26:24.019Z,93324.41
2022-09-20T18:29:09.434Z,93318.88
2022-09-20T18:31:53.238Z,93320.84
2022-09-20T18:34:35.931Z,93324.47
2022-09-20T18:37:18.562Z,93332.31
2022-09-20T18:40:01.602Z,93340.25
2022-09-20T18:42:47.767Z,93344.81
2022-09-20T18:45:30.347Z,93346.25
2022-09-20T18:48:12.985Z,93343.13
2022-09-20T18:50:59.483Z,93351.84
2022-09-20T18:53:43.289Z,93351.44
2022-09-20T18:56:27.241Z,93354.34
2022-09-20T18:59:14.809Z,93359.75
2022-09-20T19:02:04.528Z,93358.47
2022-09-20T19:04:57.765Z,93362.59
2022-09-20T19:07:50.189Z,93365.63
2022-09-20T19:10:39.774Z,93363.69
2022-09-20T19:13:26.693Z,93369.19
2022-09-20T19:16:16.524Z,93370.22
2022-09-20T19:19:16.389Z,93376.16
2022-09-20T19:22:02.578Z,93376.41
2022-09-20T19:24:51.432Z,93377.09
2022-09-20T19:27:34.336Z,93381.28
2022-09-20T19:30:18.085Z,93379.66
2022-09-20T19:33:03.270Z,93389.19
2022-09-20T19:35:50.111Z,93396.88
2022-09-20T19:38:38.336Z,93398.50
2022-09-20T19:41:27.361Z,93391.75
2022-09-20T19:44:15.626Z,93394.31
2022-09-20T19:47:09.505Z,93402.22
2022-09-20T19:49:56.110Z,93405.03
2022-09-20T19:52:39.391Z,93404.09
2022-09-20T19:55:22.328Z,93407.47
2022-09-20T19:58:05.173Z,93403.16
2022-09-20T20:00:48.302Z,93406.56
2022-09-20T20:03:31.253Z,93408.97
2022-09-20T20:06:18.589Z,93413.16
2022-09-20T20:09:08.047Z,93415.97
2022-09-20T20:11:55.319Z,93412.38
2022-09-20T20:14:44.954Z,93412.25
2022-09-20T20:17:37.505Z,93416.53
2022-09-20T20:20:24.329Z,93417.34
2022-09-20T20:23:20.650Z,93418.28
2022-09-20T20:26:06.483Z,93413.97
2022-09-20T20:28:49.211Z,93426.66
2022-09-20T20:31:33.008Z,93427.59
2022-09-20T20:34:16.719Z,93423.53
2022-09-20T20:37:01.373Z,93427.72
2022-09-20T20:39:45.308Z,93422.72
2022-09-20T20:42:27.921Z,93425.16
2022-09-20T20:45:11.800Z,93426.75
2022-09-20T20:47:56.754Z,93425.97
2022-09-20T20:50:40.535Z,93428.66
2022-09-20T20:53:23.207Z,93429.59
2022-09-20T20:56:08.444Z,93431.56
2022-09-20T20:58:51.035Z,93434.59
2022-09-20T21:01:34.568Z,93433.34
2022-09-20T21:04:17.507Z,93434.72
2022-09-20T21:07:00.157Z,93436.50
2022-09-20T21:09:42.774Z,93430.44
2022-09-20T21:12:27.528Z,93436.22
2022-09-20T21:15:10.578Z,93436.13
2022-09-20T21:17:53.691Z,93436.81
2022-09-20T21:20:36.313Z,93434.25
2022-09-20T21:23:18.907Z,93435.75
2022-09-20T21:26:03.380Z,93440.75
2022-09-20T21:28:51.053Z,93444.00
2022-09-20T21:31:34.488Z,93449.13
2022-09-20T21:34:17.420Z,93457.88
2022-09-20T21:37:00.085Z,93458.13
2022-09-20T21:39:42.737Z,93464.50
2022-09-20T21:42:27.173Z,93465.81
2022-09-20T21:45:11.458Z,93459.84
2022-09-20T21:47:54.239Z,93468.69
2022-09-20T21:50:36.855Z,93468.25
2022-09-20T21:53:20.235Z,93471.25
2022-09-20T21:56:04.299Z,93468.13
2022-09-20T21:58:47.222Z,93472.41
2022-09-20T22:01:34.620Z,93463.69
2022-09-20T22:04:17.350Z,93474.50
2022-09-20T22:06:59.992Z,93468.69
2022-09-20T22:09:42.582Z,93480.78
2022-09-20T22:12:25.203Z,93475.78
2022-09-20T22:15:08.546Z,93474.16
2022-09-20T22:17:52.504Z,93465.78
2022-09-20T22:20:35.055Z,93470.91
2022-09-20T22:23:18.013Z,93473.81
2022-09-20T22:26:01.271Z,93471.47
2022-09-20T22:28:44.054Z,93476.00
2022-09-20T22:31:27.658Z,93469.56
2022-09-20T22:34:12.405Z,93474.00
2022-09-20T22:36:54.964Z,93473.94
2022-09-20T22:39:37.604Z,93484.16
2022-09-20T22:42:20.180Z,93473.91
2022-09-20T22:45:02.803Z,93478.53
2022-09-20T22:47:45.459Z,93476.19
2022-09-20T22:50:29.430Z,93475.25
2022-09-20T22:53:12.092Z,93471.00
2022-09-20T22:55:54.715Z,93468.19
2022-09-20T22:58:38.491Z,93472.38
2022-09-20T23:01:23.688Z,93469.72
2022-09-20T23:04:07.770Z,93476.78
2022-09-20T23:06:55.074Z,93479.44
2022-09-20T23:09:37.839Z,93474.13
2022-09-20T23:12:20.433Z,93472.84
2022-09-20T23:15:03.075Z,93470.66
2022-09-20T23:17:45.665Z,93468.47
2022-09-20T23:20:29.146Z,93468.84
2022-09-20T23:23:13.112Z,93473.84
2022-09-20T23:25:56.182Z,93469.88
2022-09-20T23:28:39.799Z,93470.81
2022-09-20T23:31:22.479Z,93465.13
2022-09-20T23:34:06.160Z,93466.97
2022-09-20T23:36:48.905Z,93474.50
2022-09-20T23:39:32.814Z,93469.09
2022-09-20T23:42:15.446Z,93467.34
2022-09-20T23:44:58.046Z,93468.34
2022-09-20T23:47:40.813Z,93463.41
2022-09-20T23:50:23.417Z,93461.19
2022-09-20T23:53:06.018Z,93468.03
2022-09-20T23:55:50.164Z,93468.84
2022-09-20T23:58:32.803Z,93459.09
